createdAt,value
2018-12-26T00:00:44.784Z,2.20
2018-12-26T00:03:18.324Z,2.20
2018-12-26T00:05:51.185Z,2.72
2018-12-26T00:08:25.167Z,2.52
2018-12-26T00:10:57.503Z,2.33
2018-12-26T00:13:30.304Z,2.70
2018-12-26T00:16:02.683Z,3.10
2018-12-26T00:18:36.077Z,2.95
2018-12-26T00:21:09.345Z,3.05
2018-12-26T00:23:42.426Z,2.33
2018-12-26T00:26:14.604Z,2.20
2018-12-26T00:28:48.144Z,2.40
2018-12-26T00:31:20.745Z,2.62
2018-12-26T00:33:53.544Z,2.50
2018-12-26T00:36:25.763Z,2.20
2018-12-26T00:38:57.703Z,2.60
2018-12-26T00:41:31.428Z,2.40
2018-12-26T00:44:04.883Z,2.52
2018-12-26T00:46:36.683Z,2.40
2018-12-26T00:49:09.882Z,2.30
2018-12-26T00:51:42.863Z,2.40
2018-12-26T00:54:15.903Z,2.02
2018-12-26T00:56:48.285Z,2.20
2018-12-26T00:59:23.963Z,1.98
2018-12-26T01:01:56.463Z,1.98
2018-12-26T01:04:29.044Z,1.70
2018-12-26T01:07:01.603Z,1.80
2018-12-26T01:09:34.007Z,2.30
2018-12-26T01:12:06.264Z,2.17
2018-12-26T01:14:39.964Z,2.30
2018-12-26T01:17:12.423Z,2.10
2018-12-26T01:19:44.363Z,1.75
2018-12-26T01:22:16.823Z,1.47
2018-12-26T01:24:49.003Z,1.80
2018-12-26T01:27:22.023Z,1.70
2018-12-26T01:29:54.044Z,2.00
2018-12-26T01:32:26.203Z,2.10
2018-12-26T01:34:59.263Z,1.90
2018-12-26T01:37:32.523Z,1.80
2018-12-26T01:40:05.330Z,1.60
2018-12-26T01:42:37.286Z,1.60
2018-12-26T01:45:10.764Z,1.50
2018-12-26T01:47:43.846Z,1.40
2018-12-26T01:50:16.025Z,1.85
2018-12-26T01:52:48.603Z,2.08
2018-12-26T01:55:21.383Z,2.58
2018-12-26T01:57:54.442Z,2.33
2018-12-26T02:00:27.323Z,2.40
2018-12-26T02:02:59.683Z,1.75
2018-12-26T02:05:32.422Z,2.55
2018-12-26T02:08:06.062Z,2.40
2018-12-26T02:10:38.603Z,1.85
2018-12-26T02:13:11.443Z,2.40
2018-12-26T02:15:44.443Z,2.10
2018-12-26T02:18:17.384Z,2.10
2018-12-26T02:20:50.262Z,2.10
2018-12-26T02:23:22.385Z,1.85
2018-12-26T02:25:54.844Z,1.70
2018-12-26T02:28:26.845Z,1.70
2018-12-26T02:30:59.864Z,3.10
2018-12-26T02:33:32.303Z,2.02
2018-12-26T02:36:04.529Z,1.87
2018-12-26T02:38:37.223Z,1.77
2018-12-26T02:41:10.545Z,2.20
2018-12-26T02:43:42.704Z,2.52
2018-12-26T02:46:15.662Z,2.10
2018-12-26T02:48:49.303Z,2.05
2018-12-26T02:51:21.884Z,1.80
2018-12-26T02:53:54.164Z,2.50
2018-12-26T02:56:26.631Z,2.10
2018-12-26T02:58:59.568Z,1.62
2018-12-26T03:01:32.164Z,2.50
2018-12-26T03:04:04.503Z,1.60
2018-12-26T03:06:36.824Z,1.65
2018-12-26T03:09:10.503Z,1.45
2018-12-26T03:11:44.484Z,1.80
2018-12-26T03:14:17.024Z,1.62
2018-12-26T03:16:49.922Z,4.47
2018-12-26T03:19:22.685Z,1.67
2018-12-26T03:21:55.384Z,1.60
2018-12-26T03:24:27.646Z,1.60
2018-12-26T03:27:00.366Z,2.20
2018-12-26T03:29:33.707Z,1.67
2018-12-26T03:32:06.667Z,1.95
2018-12-26T03:34:39.544Z,1.70
2018-12-26T03:37:11.746Z,2.40
2018-12-26T03:39:44.852Z,2.00
2018-12-26T03:42:17.569Z,2.25
2018-12-26T03:44:50.646Z,2.58
2018-12-26T03:47:22.526Z,2.85
2018-12-26T03:49:54.026Z,3.00
2018-12-26T03:52:26.688Z,2.80
2018-12-26T03:54:59.807Z,6.75
2018-12-26T03:57:32.846Z,2.20
2018-12-26T04:00:06.088Z,3.10
2018-12-26T04:02:38.432Z,2.98
2018-12-26T04:05:10.747Z,3.00
2018-12-26T04:07:43.928Z,2.72
2018-12-26T04:10:17.007Z,2.95
2018-12-26T04:12:50.986Z,3.22
2018-12-26T04:15:24.126Z,2.70
2018-12-26T04:17:56.649Z,2.75
2018-12-26T04:20:29.649Z,4.60
2018-12-26T04:23:02.112Z,4.42
2018-12-26T04:25:34.925Z,4.53
2018-12-26T04:28:07.427Z,5.60
2018-12-26T04:30:40.468Z,5.90
2018-12-26T04:33:13.746Z,4.05
2018-12-26T04:35:47.065Z,2.20
2018-12-26T04:38:19.865Z,2.20
2018-12-26T04:40:52.446Z,1.98
2018-12-26T04:43:25.406Z,2.60
2018-12-26T04:45:58.547Z,2.40
2018-12-26T04:48:31.726Z,2.20
2018-12-26T04:51:04.386Z,2.25
2018-12-26T04:53:37.285Z,2.27
2018-12-26T04:56:10.346Z,2.00
2018-12-26T04:58:43.846Z,3.40
2018-12-26T05:01:15.746Z,2.10
2018-12-26T05:03:48.126Z,2.58
2018-12-26T05:06:21.491Z,3.37
2018-12-26T05:08:53.845Z,4.53
2018-12-26T05:11:27.186Z,4.30
2018-12-26T05:13:59.325Z,3.83
2018-12-26T05:16:31.847Z,3.67
2018-12-26T05:19:04.186Z,4.08
2018-12-26T05:21:36.606Z,5.50
2018-12-26T05:24:09.065Z,7.05
2018-12-26T05:26:41.893Z,5.20
2018-12-26T05:29:14.266Z,4.22
2018-12-26T05:31:46.829Z,4.00
2018-12-26T05:34:18.706Z,5.12
2018-12-26T05:36:51.466Z,2.85
2018-12-26T05:39:23.705Z,2.12
2018-12-26T05:41:56.706Z,1.90
2018-12-26T05:44:29.485Z,2.00
2018-12-26T05:47:02.265Z,1.90
2018-12-26T05:49:35.106Z,2.95
2018-12-26T05:52:08.013Z,3.10
2018-12-26T05:54:41.246Z,3.25
2018-12-26T05:57:14.427Z,2.58
2018-12-26T05:59:47.149Z,1.95
2018-12-26T06:02:20.026Z,2.20
2018-12-26T06:04:52.225Z,2.17
2018-12-26T06:07:25.486Z,3.00
2018-12-26T06:09:57.809Z,2.22
2018-12-26T06:12:29.884Z,2.35
2018-12-26T06:15:02.886Z,1.92
2018-12-26T06:17:36.485Z,2.40
2018-12-26T06:20:10.086Z,2.30
2018-12-26T06:22:42.846Z,1.95
2018-12-26T06:25:15.687Z,2.50
2018-12-26T06:27:51.583Z,2.25
2018-12-26T06:30:22.104Z,2.55
2018-12-26T06:32:55.004Z,3.00
2018-12-26T06:35:28.105Z,2.12
2018-12-26T06:38:01.556Z,2.10
2018-12-26T06:40:34.145Z,2.10
2018-12-26T06:43:06.765Z,2.62
2018-12-26T06:45:40.125Z,2.52
2018-12-26T06:48:12.605Z,4.72
2018-12-26T06:50:45.426Z,2.55
2018-12-26T06:53:17.785Z,3.00
2018-12-26T06:55:50.365Z,3.50
2018-12-26T06:58:22.348Z,3.10
2018-12-26T07:00:55.525Z,2.80
2018-12-26T07:03:27.787Z,3.15
2018-12-26T07:06:00.265Z,3.60
2018-12-26T07:08:32.164Z,3.67
2018-12-26T07:11:03.847Z,11.25
2018-12-26T07:13:36.967Z,5.47
2018-12-26T07:16:10.105Z,5.10
2018-12-26T07:18:43.788Z,7.20
2018-12-26T07:21:16.332Z,7.62
2018-12-26T07:23:49.029Z,5.05
2018-12-26T07:26:21.285Z,5.75
2018-12-26T07:28:53.630Z,4.37
2018-12-26T07:31:26.666Z,5.10
2018-12-26T07:33:59.006Z,4.90
2018-12-26T07:36:31.525Z,5.30
2018-12-26T07:39:04.566Z,5.12
2018-12-26T07:41:36.739Z,4.92
2018-12-26T07:44:10.066Z,7.72
2018-12-26T07:46:42.266Z,7.90
2018-12-26T07:49:14.846Z,8.43
2018-12-26T07:51:47.865Z,10.00
2018-12-26T07:54:20.749Z,9.63
2018-12-26T07:56:54.047Z,11.40
2018-12-26T07:59:26.950Z,10.45
2018-12-26T08:02:00.086Z,11.95
2018-12-26T08:04:32.729Z,11.35
2018-12-26T08:07:04.806Z,15.45
2018-12-26T08:09:36.725Z,10.58
2018-12-26T08:12:09.705Z,10.60
2018-12-26T08:14:41.986Z,18.73
2018-12-26T08:17:13.566Z,9.90
2018-12-26T08:19:46.127Z,11.95
2018-12-26T08:22:18.585Z,11.95
2018-12-26T08:24:51.386Z,12.60
2018-12-26T08:27:24.650Z,16.60
2018-12-26T08:29:57.966Z,13.85
2018-12-26T08:32:30.246Z,14.63
2018-12-26T08:35:03.467Z,13.22
2018-12-26T08:37:36.305Z,12.95
2018-12-26T08:40:09.826Z,14.07
2018-12-26T08:42:42.387Z,11.43
2018-12-26T08:45:14.973Z,11.55
2018-12-26T08:47:48.105Z,10.82
2018-12-26T08:50:20.886Z,11.57
2018-12-26T08:52:54.269Z,12.07
2018-12-26T08:55:26.786Z,12.20
2018-12-26T08:57:59.805Z,12.75
2018-12-26T09:00:32.286Z,13.25
2018-12-26T09:03:05.305Z,14.43
2018-12-26T09:05:37.324Z,14.50
2018-12-26T09:08:10.028Z,15.43
2018-12-26T09:10:42.846Z,14.80
2018-12-26T09:13:14.845Z,15.08
2018-12-26T09:15:47.568Z,17.00
2018-12-26T09:18:20.325Z,15.25
2018-12-26T09:20:54.125Z,15.00
2018-12-26T09:23:27.245Z,15.72
2018-12-26T09:26:03.588Z,15.58
2018-12-26T09:28:43.827Z,17.00
2018-12-26T09:31:12.885Z,22.82
2018-12-26T09:33:44.806Z,16.32
2018-12-26T09:36:17.585Z,17.00
2018-12-26T09:38:50.404Z,18.62
2018-12-26T09:41:24.024Z,17.17
2018-12-26T09:43:56.584Z,15.90
2018-12-26T09:46:28.964Z,16.87
2018-12-26T09:49:00.925Z,16.17
2018-12-26T09:51:33.464Z,16.57
2018-12-26T09:54:06.445Z,16.97
2018-12-26T09:56:38.259Z,17.32
2018-12-26T09:59:11.485Z,17.20
2018-12-26T10:01:44.625Z,17.98
2018-12-26T10:04:17.444Z,18.40
2018-12-26T10:06:49.304Z,17.98
2018-12-26T10:09:22.085Z,18.52
2018-12-26T10:11:55.145Z,17.85
2018-12-26T10:14:26.844Z,17.80
2018-12-26T10:16:59.044Z,17.92
2018-12-26T10:19:32.387Z,17.85
2018-12-26T10:22:04.443Z,18.40
2018-12-26T10:24:37.047Z,17.57
2018-12-26T10:27:10.364Z,19.20
2018-12-26T10:29:42.665Z,18.48
2018-12-26T10:32:15.105Z,18.27
2018-12-26T10:34:48.225Z,17.55
2018-12-26T10:37:21.174Z,16.32
2018-12-26T10:39:53.564Z,18.05
2018-12-26T10:42:25.888Z,18.57
2018-12-26T10:44:59.403Z,17.75
2018-12-26T10:47:32.224Z,15.90
2018-12-26T10:50:05.223Z,17.82
2018-12-26T10:52:37.766Z,17.17
2018-12-26T10:55:11.828Z,17.37
2018-12-26T10:57:45.246Z,17.45
2018-12-26T11:00:18.445Z,17.75
2018-12-26T11:02:50.404Z,16.75
2018-12-26T11:05:29.538Z,18.67
2018-12-26T11:07:57.884Z,18.10
2018-12-26T11:10:30.684Z,16.90
2018-12-26T11:13:02.885Z,16.77
2018-12-26T11:15:35.044Z,17.45
2018-12-26T11:18:07.963Z,17.17
2018-12-26T11:20:40.185Z,19.05
2018-12-26T11:23:13.064Z,18.55
2018-12-26T11:25:46.205Z,18.55
2018-12-26T11:28:19.245Z,18.30
2018-12-26T11:30:51.944Z,18.45
2018-12-26T11:33:24.625Z,18.73
2018-12-26T11:35:57.365Z,18.67
2018-12-26T11:38:29.985Z,18.45
2018-12-26T11:41:02.366Z,18.82
2018-12-26T11:43:35.926Z,18.20
2018-12-26T11:46:09.204Z,19.12
2018-12-26T11:48:41.445Z,20.15
2018-12-26T11:51:14.406Z,18.52
2018-12-26T11:53:47.705Z,18.02
2018-12-26T11:56:20.225Z,19.73
2018-12-26T11:58:52.443Z,18.20
2018-12-26T12:01:25.187Z,18.35
2018-12-26T12:03:58.058Z,19.20
2018-12-26T12:06:31.118Z,19.82
2018-12-26T12:09:04.499Z,18.73
2018-12-26T12:11:37.457Z,16.97
2018-12-26T12:14:09.858Z,18.55
2018-12-26T12:16:42.688Z,19.35
2018-12-26T12:19:14.818Z,18.57
2018-12-26T12:21:47.857Z,18.25
2018-12-26T12:24:20.682Z,17.95
2018-12-26T12:26:53.702Z,19.90
2018-12-26T12:29:26.123Z,22.00
2018-12-26T12:31:58.418Z,19.60
2018-12-26T12:34:31.418Z,19.70
2018-12-26T12:37:04.218Z,18.17
2018-12-26T12:39:36.197Z,18.05
2018-12-26T12:42:09.057Z,19.62
2018-12-26T12:44:41.398Z,19.73
2018-12-26T12:47:14.397Z,19.30
2018-12-26T12:49:47.517Z,20.75
2018-12-26T12:52:19.978Z,18.70
2018-12-26T12:54:52.397Z,19.55
2018-12-26T12:57:24.957Z,18.73
2018-12-26T12:59:57.796Z,19.05
2018-12-26T13:02:30.396Z,19.75
2018-12-26T13:05:03.497Z,19.85
2018-12-26T13:07:37.036Z,19.82
2018-12-26T13:10:09.437Z,18.80
2018-12-26T13:12:42.296Z,20.08
2018-12-26T13:15:15.298Z,19.07
2018-12-26T13:17:48.956Z,20.35
2018-12-26T13:20:21.724Z,19.92
2018-12-26T13:22:55.076Z,18.98
2018-12-26T13:25:27.656Z,19.37
2018-12-26T13:28:00.236Z,20.00
2018-12-26T13:30:32.395Z,18.75
2018-12-26T13:33:06.215Z,19.70
2018-12-26T13:35:38.736Z,19.52
2018-12-26T13:38:11.811Z,19.80
2018-12-26T13:40:43.915Z,20.65
2018-12-26T13:43:16.487Z,19.45
2018-12-26T13:45:49.188Z,20.95
2018-12-26T13:48:21.629Z,19.87
2018-12-26T13:50:53.547Z,20.23
2018-12-26T13:53:26.668Z,20.00
2018-12-26T13:55:59.648Z,21.82
2018-12-26T13:58:31.665Z,21.05
2018-12-26T14:01:03.975Z,21.10
2018-12-26T14:03:36.314Z,20.60
2018-12-26T14:06:08.010Z,20.30
2018-12-26T14:08:40.466Z,21.57
2018-12-26T14:11:12.786Z,20.50
2018-12-26T14:13:45.855Z,20.27
2018-12-26T14:16:18.254Z,20.45
2018-12-26T14:18:50.617Z,20.77
2018-12-26T14:21:22.818Z,19.95
2018-12-26T14:23:55.983Z,18.90
2018-12-26T14:26:28.021Z,20.02
2018-12-26T14:29:01.088Z,19.45
2018-12-26T14:31:33.668Z,23.60
2018-12-26T14:34:06.146Z,20.52
2018-12-26T14:36:39.106Z,20.23
2018-12-26T14:39:13.085Z,20.72
2018-12-26T14:41:45.767Z,22.30
2018-12-26T14:44:18.124Z,19.45
2018-12-26T14:46:50.687Z,25.62
2018-12-26T14:49:23.006Z,22.13
2018-12-26T14:51:55.487Z,21.05
2018-12-26T14:54:28.187Z,19.77
2018-12-26T14:57:01.247Z,20.50
2018-12-26T14:59:34.751Z,21.10
2018-12-26T15:02:06.859Z,19.60
2018-12-26T15:04:39.186Z,20.30
2018-12-26T15:07:12.570Z,20.90
2018-12-26T15:09:46.185Z,21.12
2018-12-26T15:12:18.745Z,20.23
2018-12-26T15:14:51.565Z,19.98
2018-12-26T15:17:24.166Z,20.25
2018-12-26T15:19:57.822Z,19.60
2018-12-26T15:22:30.043Z,17.67
2018-12-26T15:25:02.684Z,19.37
2018-12-26T15:27:35.983Z,36.00
2018-12-26T15:30:09.329Z,21.12
2018-12-26T15:32:41.903Z,20.65
2018-12-26T15:35:14.383Z,20.95
2018-12-26T15:37:47.443Z,21.33
2018-12-26T15:40:20.624Z,21.97
2018-12-26T15:42:54.006Z,19.90
2018-12-26T15:45:26.347Z,21.40
2018-12-26T15:47:58.685Z,24.07
2018-12-26T15:50:33.354Z,21.70
2018-12-26T15:53:06.362Z,20.43
2018-12-26T15:55:38.664Z,20.00
2018-12-26T15:58:11.284Z,20.90
2018-12-26T16:00:44.106Z,18.98
2018-12-26T16:03:17.444Z,19.55
2018-12-26T16:05:49.904Z,19.80
2018-12-26T16:08:21.827Z,21.68
2018-12-26T16:10:54.047Z,18.98
2018-12-26T16:13:26.523Z,23.05
2018-12-26T16:15:59.764Z,19.85
2018-12-26T16:18:33.144Z,22.77
2018-12-26T16:21:05.905Z,19.82
2018-12-26T16:23:38.684Z,22.00
2018-12-26T16:26:11.664Z,19.82
2018-12-26T16:28:45.444Z,20.95
2018-12-26T16:31:17.864Z,25.85
2018-12-26T16:33:50.684Z,23.02
2018-12-26T16:36:23.804Z,22.00
2018-12-26T16:38:56.804Z,22.05
2018-12-26T16:41:30.144Z,21.65
2018-12-26T16:44:02.775Z,21.00
2018-12-26T16:46:35.504Z,19.90
2018-12-26T16:49:08.265Z,22.70
2018-12-26T16:51:41.707Z,21.15
2018-12-26T16:54:14.105Z,20.97
2018-12-26T16:56:46.525Z,21.85
2018-12-26T16:59:19.284Z,22.62
2018-12-26T17:01:52.624Z,23.02
2018-12-26T17:04:26.204Z,22.37
2018-12-26T17:06:58.565Z,22.45
2018-12-26T17:09:31.667Z,22.52
2018-12-26T17:12:03.984Z,21.37
2018-12-26T17:14:36.285Z,21.25
2018-12-26T17:17:09.412Z,21.20
2018-12-26T17:19:41.946Z,30.25
2018-12-26T17:22:13.967Z,23.55
2018-12-26T17:24:53.444Z,22.52
2018-12-26T17:27:25.790Z,23.18
2018-12-26T17:29:58.685Z,24.57
2018-12-26T17:32:31.247Z,24.10
2018-12-26T17:35:03.523Z,23.38
2018-12-26T17:37:36.885Z,23.47
2018-12-26T17:40:10.229Z,23.40
2018-12-26T17:42:43.383Z,20.97
2018-12-26T17:45:21.244Z,20.60
2018-12-26T17:47:56.078Z,22.02
2018-12-26T17:50:46.484Z,22.73
2018-12-26T17:53:30.305Z,21.23
2018-12-26T17:56:12.524Z,21.90
2018-12-26T17:59:06.104Z,21.00
2018-12-26T18:01:59.504Z,40.28
2018-12-26T18:04:31.565Z,23.87
2018-12-26T18:07:03.483Z,31.90
2018-12-26T18:09:36.265Z,23.07
2018-12-26T18:12:12.036Z,22.80
2018-12-26T18:14:44.465Z,24.43
2018-12-26T18:17:17.223Z,20.25
2018-12-26T18:19:51.084Z,21.45
2018-12-26T18:22:24.453Z,22.37
2018-12-26T18:24:56.624Z,22.80
2018-12-26T18:27:29.464Z,25.20
2018-12-26T18:30:02.723Z,24.18
2018-12-26T18:32:35.468Z,22.70
2018-12-26T18:35:08.804Z,23.52
2018-12-26T18:37:41.263Z,22.82
2018-12-26T18:40:15.003Z,22.73
2018-12-26T18:42:47.626Z,23.85
2018-12-26T18:45:21.365Z,22.35
2018-12-26T18:47:53.587Z,21.02
2018-12-26T18:50:26.548Z,22.20
2018-12-26T18:52:59.165Z,22.70
2018-12-26T18:55:31.944Z,21.60
2018-12-26T18:58:03.904Z,21.15
2018-12-26T19:00:37.445Z,22.13
2018-12-26T19:03:09.925Z,23.52
2018-12-26T19:05:43.005Z,22.95
2018-12-26T19:08:15.644Z,26.68
2018-12-26T19:10:48.226Z,21.97
2018-12-26T19:13:20.924Z,22.80
2018-12-26T19:15:54.005Z,23.27
2018-12-26T19:18:27.744Z,22.75
2018-12-26T19:20:58.544Z,21.87
2018-12-26T19:23:31.125Z,23.00
2018-12-26T19:26:03.881Z,23.07
2018-12-26T19:28:37.265Z,23.40
2018-12-26T19:31:10.366Z,23.57
2018-12-26T19:33:43.765Z,24.50
2018-12-26T19:36:17.565Z,21.45
2018-12-26T19:38:51.174Z,21.75
2018-12-26T19:41:23.785Z,21.45
2018-12-26T19:43:56.165Z,22.73
2018-12-26T19:46:28.865Z,20.95
2018-12-26T19:49:02.006Z,22.13
2018-12-26T19:51:34.864Z,22.75
2018-12-26T19:54:07.046Z,21.40
2018-12-26T19:56:39.965Z,22.55
2018-12-26T19:59:12.805Z,24.80
2018-12-26T20:01:48.253Z,23.12
2018-12-26T20:04:19.023Z,25.00
2018-12-26T20:06:51.825Z,23.20
2018-12-26T20:09:25.064Z,24.70
2018-12-26T20:12:00.604Z,22.93
2018-12-26T20:14:33.063Z,22.87
2018-12-26T20:17:06.544Z,22.95
2018-12-26T20:19:39.584Z,24.18
2018-12-26T20:22:12.025Z,20.62
2018-12-26T20:24:44.285Z,22.32
2018-12-26T20:27:15.925Z,21.20
2018-12-26T20:29:48.765Z,20.43
2018-12-26T20:32:21.183Z,18.73
2018-12-26T20:34:54.043Z,19.82
2018-12-26T20:37:27.744Z,19.65
2018-12-26T20:40:01.227Z,20.30
2018-12-26T20:42:33.565Z,21.68
2018-12-26T20:45:06.064Z,19.10
2018-12-26T20:47:38.724Z,18.07
2018-12-26T20:50:11.643Z,17.67
2018-12-26T20:52:44.244Z,17.75
2018-12-26T20:55:17.005Z,17.32
2018-12-26T20:57:49.768Z,18.67
2018-12-26T21:00:22.084Z,15.98
2018-12-26T21:02:54.485Z,16.73
2018-12-26T21:05:27.805Z,15.43
2018-12-26T21:08:01.403Z,15.85
2018-12-26T21:10:34.443Z,17.40
2018-12-26T21:13:07.004Z,16.65
2018-12-26T21:15:40.164Z,16.57
2018-12-26T21:18:12.943Z,14.98
2018-12-26T21:20:45.784Z,17.23
2018-12-26T21:23:18.683Z,16.73
2018-12-26T21:25:51.804Z,16.30
2018-12-26T21:28:24.544Z,18.15
2018-12-26T21:30:57.924Z,15.28
2018-12-26T21:33:30.207Z,17.67
2018-12-26T21:36:02.845Z,16.30
2018-12-26T21:38:36.163Z,18.67
2018-12-26T21:41:09.424Z,15.55
2018-12-26T21:43:43.105Z,18.40
2018-12-26T21:46:19.105Z,17.92
2018-12-26T21:48:52.464Z,19.30
2018-12-26T21:51:24.784Z,18.95
2018-12-26T21:53:58.205Z,21.75
2018-12-26T21:56:31.324Z,20.43
2018-12-26T21:59:04.704Z,21.62
2018-12-26T22:01:36.925Z,20.75
2018-12-26T22:04:09.885Z,20.37
2018-12-26T22:06:42.706Z,20.23
2018-12-26T22:09:14.906Z,17.40
2018-12-26T22:11:48.125Z,14.83
2018-12-26T22:14:20.403Z,16.60
2018-12-26T22:16:53.204Z,14.53
2018-12-26T22:19:26.365Z,15.28
2018-12-26T22:21:58.084Z,15.15
2018-12-26T22:24:30.706Z,18.07
2018-12-26T22:27:03.544Z,19.48
2018-12-26T22:29:35.843Z,18.45
2018-12-26T22:32:08.683Z,16.12
2018-12-26T22:34:40.723Z,17.50
2018-12-26T22:37:13.085Z,15.93
2018-12-26T22:39:45.487Z,18.02
2018-12-26T22:42:18.525Z,15.32
2018-12-26T22:44:51.124Z,16.97
2018-12-26T22:47:23.905Z,16.67
2018-12-26T22:49:56.146Z,16.80
2018-12-26T22:52:29.145Z,18.80
2018-12-26T22:55:01.664Z,18.95
2018-12-26T22:57:34.083Z,17.70
2018-12-26T23:00:07.963Z,20.08
2018-12-26T23:02:39.664Z,20.68
2018-12-26T23:05:12.985Z,17.30
2018-12-26T23:07:47.584Z,17.50
2018-12-26T23:10:20.683Z,17.50
2018-12-26T23:12:53.324Z,18.00
2018-12-26T23:15:26.284Z,19.23
2018-12-26T23:17:58.763Z,18.42
2018-12-26T23:20:32.908Z,17.37
2018-12-26T23:23:05.805Z,18.40
2018-12-26T23:25:38.746Z,17.32
2018-12-26T23:28:10.845Z,17.65
2018-12-26T23:30:44.566Z,17.52
2018-12-26T23:33:17.024Z,18.77
2018-12-26T23:35:50.045Z,17.27
2018-12-26T23:38:23.184Z,18.20
2018-12-26T23:40:56.483Z,17.70
2018-12-26T23:43:28.742Z,18.62
2018-12-26T23:46:01.843Z,18.42
2018-12-26T23:48:34.524Z,18.87
2018-12-26T23:51:08.265Z,19.00
2018-12-26T23:53:40.604Z,18.25
2018-12-26T23:56:13.503Z,18.73
2018-12-26T23:58:46.865Z,20.48
